地図

経路データ

SID SEASON NUMBER BASIN SUBBASIN NAME ISO_TIME NATURE LAT LON WMO_WIND WMO_PRES WMO_AGENCY TRACK_TYPE DIST2LAND LANDFALL IFLAG USA_AGENCY USA_ATCF_ID USA_LAT USA_LON USA_RECORD USA_STATUS USA_WIND USA_PRES USA_SSHS USA_R34_NE USA_R34_SE USA_R34_SW USA_R34_NW USA_R50_NE USA_R50_SE USA_R50_SW USA_R50_NW USA_R64_NE USA_R64_SE USA_R64_SW USA_R64_NW USA_POCI USA_ROCI USA_RMW USA_EYE TOKYO_LAT TOKYO_LON TOKYO_GRADE TOKYO_WIND TOKYO_PRES TOKYO_R50_DIR TOKYO_R50_LONG TOKYO_R50_SHORT TOKYO_R30_DIR TOKYO_R30_LONG TOKYO_R30_SHORT TOKYO_LAND CMA_LAT CMA_LON CMA_CAT CMA_WIND CMA_PRES HKO_LAT HKO_LON HKO_CAT HKO_WIND HKO_PRES NEWDELHI_LAT NEWDELHI_LON NEWDELHI_GRADE NEWDELHI_WIND NEWDELHI_PRES NEWDELHI_CI NEWDELHI_DP NEWDELHI_POCI REUNION_LAT REUNION_LON REUNION_TYPE REUNION_WIND REUNION_PRES REUNION_TNUM REUNION_CI REUNION_RMW REUNION_R34_NE REUNION_R34_SE REUNION_R34_SW REUNION_R34_NW REUNION_R50_NE REUNION_R50_SE REUNION_R50_SW REUNION_R50_NW REUNION_R64_NE REUNION_R64_SE REUNION_R64_SW REUNION_R64_NW BOM_LAT BOM_LON BOM_TYPE BOM_WIND BOM_PRES BOM_TNUM BOM_CI BOM_RMW BOM_R34_NE BOM_R34_SE BOM_R34_SW BOM_R34_NW BOM_R50_NE BOM_R50_SE BOM_R50_SW BOM_R50_NW BOM_R64_NE BOM_R64_SE BOM_R64_SW BOM_R64_NW BOM_ROCI BOM_POCI BOM_EYE BOM_POS_METHOD BOM_PRES_METHOD NADI_LAT NADI_LON NADI_CAT NADI_WIND NADI_PRES WELLINGTON_LAT WELLINGTON_LON WELLINGTON_WIND WELLINGTON_PRES DS824_LAT DS824_LON DS824_STAGE DS824_WIND DS824_PRES TD9636_LAT TD9636_LON TD9636_STAGE TD9636_WIND TD9636_PRES TD9635_LAT TD9635_LON TD9635_WIND TD9635_PRES TD9635_ROCI NEUMANN_LAT NEUMANN_LON NEUMANN_CLASS NEUMANN_WIND NEUMANN_PRES MLC_LAT MLC_LON MLC_CLASS MLC_WIND MLC_PRES USA_GUST BOM_GUST BOM_GUST_PER REUNION_GUST REUNION_GUST_PER USA_SEAHGT USA_SEARAD_NE USA_SEARAD_SE USA_SEARAD_SW USA_SEARAD_NW STORM_SPEED STORM_DIR
1926244N25076 1926 38 NI AS NOT_NAMED 1926-09-01 00:00:00 TS 25.2000 75.8000 main 0 0 _________O____ -1 25.2000 75.8000 TC 30 6 265
1926244N25076 1926 38 NI AS NOT_NAMED 1926-09-01 03:00:00 TS 25.1736 75.4600 main 0 0 _________PO___ -1 25.1604 75.2900 TC 30 25.2000 75.8000 1 7 263
1926244N25076 1926 38 NI AS NOT_NAMED 1926-09-01 06:00:00 TS 25.1116 75.0130 main 0 0 _________OP___ -1 25.1000 74.8000 TC 30 25.1289 75.3324 1 8 260
1926244N25076 1926 38 NI AS NOT_NAMED 1926-09-01 09:00:00 TS 25.0280 74.5652 main 0 0 _________PP___ -1 25.0073 74.3425 TC 30 25.0557 74.8621 1 8 258
1926244N25076 1926 38 NI AS NOT_NAMED 1926-09-01 12:00:00 TS 24.9398 74.1429 main 0 0 _________OP___ -1 24.9000 73.9000 TC 30 24.9797 74.3857 1 8 258
1926244N25076 1926 38 NI AS NOT_NAMED 1926-09-01 15:00:00 TS 24.8499 73.6750 main 0 0 _________PO___ -1 24.7999 73.4501 TC 30 24.9000 73.9000 1 9 258
1926244N25076 1926 38 NI AS NOT_NAMED 1926-09-01 18:00:00 TS 24.7577 73.2032 main 0 0 _________OP___ -1 24.7000 73.0000 TC 30 24.8155 73.4063 1 9 258
1926244N25076 1926 38 NI AS NOT_NAMED 1926-09-01 21:00:00 TS 24.6652 72.7226 main 0 0 _________PP___ -1 24.6076 72.5201 TC 30 24.7228 72.9251 1 9 257
1926244N25076 1926 38 NI AS NOT_NAMED 1926-09-02 00:00:00 TS 24.5594 72.2906 main 0 0 _________OP___ -1 24.5000 72.1000 TC 30 24.6187 72.4813 1 7 251
1926244N25076 1926 38 NI AS NOT_NAMED 1926-09-02 03:00:00 TS 24.4287 71.9563 main 0 0 _________PO___ -1 24.3573 71.8126 TC 30 24.5000 72.1000 1 6 242
1926244N25076 1926 38 NI AS NOT_NAMED 1926-09-02 06:00:00 TS 24.2757 71.7052 main 0 0 _________OP___ -1 24.2000 71.6000 TC 30 24.3514 71.8105 1 5 234
1926244N25076 1926 38 NI AS NOT_NAMED 1926-09-02 09:00:00 TS 24.1170 71.4876 main 0 0 _________PP___ -1 24.0424 71.3925 TC 30 24.1916 71.5827 1 5 231
1926244N25076 1926 38 NI AS NOT_NAMED 1926-09-02 12:00:00 TS 23.9680 71.2943 main 0 0 _________OP___ -1 23.9000 71.2000 TC 30 24.0360 71.3886 1 4 232
1926244N25076 1926 38 NI AS NOT_NAMED 1926-09-02 15:00:00 TS 23.8425 71.1038 main 0 0 _________PO___ -1 23.7849 71.0075 TC 31 23.9000 71.2000 1 4 238
1926244N25076 1926 38 NI AS NOT_NAMED 1926-09-02 18:00:00 TS 23.7454 70.9038 main 0 0 _________OP___ -1 23.7000 70.8000 TC 32 23.7907 71.0076 1 4 246
1926244N25076 1926 38 NI AS NOT_NAMED 1926-09-02 21:00:00 TS 23.6770 70.6989 main 0 0 _________PP___ -1 23.6498 70.5876 TC 33 23.7042 70.8101 1 4 254
1926244N25076 1926 38 NI AS NOT_NAMED 1926-09-03 00:00:00 TS 23.6203 70.4413 main 0 0 _________OP___ -1 23.6000 70.3000 TC 34 23.6406 70.5825 1 6 256
1926244N25076 1926 38 NI AS NOT_NAMED 1926-09-03 03:00:00 TS 23.5388 70.0861 main 0 0 _________PO___ -1 23.4777 69.8721 TC 36 23.6000 70.3000 2 7 258
1926244N25076 1926 38 NI AS NOT_NAMED 1926-09-03 06:00:00 TS 23.4673 69.6497 main 0 0 _________OP___ -1 23.4000 69.4000 TC 39 23.5346 69.8995 2 8 265
1926244N25076 1926 38 NI AS NOT_NAMED 1926-09-03 09:00:00 TS 23.4718 69.2134 main 0 0 _________PP___ -1 23.4474 68.9776 TC 42 23.4962 69.4492 2 8 276
1926244N25076 1926 38 NI AS NOT_NAMED 1926-09-03 12:00:00 TS 23.5548 68.7997 main 0 0 _________OP___ -1 23.6000 68.6000 TC 45 23.5096 68.9994 2 8 288
1926244N25076 1926 38 NI AS NOT_NAMED 1926-09-03 15:00:00 TS 23.7100 68.4313 main 0 0 _________PO___ -1 23.8200 68.2626 TC 41 23.6000 68.6000 3 7 304
1926244N25076 1926 38 NI AS NOT_NAMED 1926-09-03 18:00:00 TS 23.9620 68.1430 main 0 0 _________OP___ -1 24.1000 68.0000 TC 37 23.8239 68.2860 3 7 320
1926244N25076 1926 38 NI AS NOT_NAMED 1926-09-03 21:00:00 TS 24.2710 67.9219 main 0 0 _________PP___ -1 24.4224 67.8125 TC 33 24.1195 68.0313 3 7 330
1926244N25076 1926 38 NI AS NOT_NAMED 1926-09-04 00:00:00 TS 24.5652 67.7679 main 0 0 _________OP___ -1 24.7000 67.7000 TC 30 24.4304 67.8358 3 5 335
1926244N25076 1926 38 NI AS NOT_NAMED 1926-09-04 03:00:00 TS 24.7650 67.6637 main 0 0 _________PO___ -1 24.8300 67.6274 TC 30 24.7000 67.7000 1 3 335
1926244N25076 1926 38 NI AS NOT_NAMED 1926-09-04 06:00:00 TS 24.8750 67.6064 main 0 0 _________OP___ -1 24.9000 67.6000 TC 30 24.8501 67.6128 1 2 343
1926244N25076 1926 38 NI AS NOT_NAMED 1926-09-04 09:00:00 TS 24.9761 67.5872 main 0 0 _________PP___ -1 25.0000 67.5925 TC 30 24.9523 67.5818 1 2 355
1926244N25076 1926 38 NI AS NOT_NAMED 1926-09-04 12:00:00 TS 25.0642 67.5925 main 0 0 _________OP___ -1 25.1000 67.6000 TC 30 25.0283 67.5849 1 2 0
1926244N25076 1926 38 NI AS NOT_NAMED 1926-09-04 15:00:00 TS 25.1500 67.6000 main 0 0 _________PO___ -1 25.2000 67.6000 TC 30 25.1000 67.6000 1 2 0
1926244N25076 1926 38 NI AS NOT_NAMED 1926-09-04 18:00:00 TS 25.2341 67.6051 main 0 0 _________OP___ -1 25.3000 67.6000 TC 30 25.1848 67.6090 1 2 8
1926244N25076 1926 38 NI AS NOT_NAMED 1926-09-04 21:00:00 TS 25.3296 67.6062 main 0 0 _________PP___ -1 25.4000 67.6000 TC 30 25.2826 67.6103 1 2 352
1926244N25076 1926 38 NI AS NOT_NAMED 1926-09-05 00:00:00 TS 25.4261 67.6043 main 0 0 _________OP___ -1 25.5000 67.6000 TC 30 25.3891 67.6064 1 2 351
1926244N25076 1926 38 NI AS NOT_NAMED 1926-09-05 03:00:00 NR 25.5000 67.6000 main 0 __________O___ -1 TC 25.5000 67.6000 1 1 0

IBTrACS Databaseについて

本データベースは、米国NOAAが公開する1842年以降の世界の熱帯低気圧のベストトラックデータアーカイブInternational Best Track Archive for Climate Stewardship (IBTrACS)を、ウェブで閲覧しやすい形式に変換したものです。

最終更新日:2021-10-21